sensor_id;sensor_type;location;lat;lon;timestamp;temperature;humidity
10911;DHT22;5508;49.150;11.030;2023-04-05T00:01:39;-4.10;98.90
10911;DHT22;5508;49.150;11.030;2023-04-05T00:04:40;-4.20;99.60
10911;DHT22;5508;49.150;11.030;2023-04-05T00:07:49;-4.30;99.90
10911;DHT22;5508;49.150;11.030;2023-04-05T00:10:53;-4.30;99.50
10911;DHT22;5508;49.150;11.030;2023-04-05T00:13:54;-4.20;99.90
10911;DHT22;5508;49.150;11.030;2023-04-05T00:16:55;-4.10;99.90
10911;DHT22;5508;49.150;11.030;2023-04-05T00:19:56;-4.20;99.60
10911;DHT22;5508;49.150;11.030;2023-04-05T00:22:57;-4.20;97.80
10911;DHT22;5508;49.150;11.030;2023-04-05T00:25:58;-4.20;97.50
10911;DHT22;5508;49.150;11.030;2023-04-05T00:28:58;-4.20;97.10
10911;DHT22;5508;49.150;11.030;2023-04-05T00:31:59;-4.30;97.60
10911;DHT22;5508;49.150;11.030;2023-04-05T00:34:59;-4.40;97.80
10911;DHT22;5508;49.150;11.030;2023-04-05T00:38:00;-4.40;99.10
10911;DHT22;5508;49.150;11.030;2023-04-05T00:41:00;-4.50;98.70
10911;DHT22;5508;49.150;11.030;2023-04-05T00:44:01;-4.50;99.90
10911;DHT22;5508;49.150;11.030;2023-04-05T00:47:04;-4.50;99.90
10911;DHT22;5508;49.150;11.030;2023-04-05T00:50:05;-4.50;99.90
10911;DHT22;5508;49.150;11.030;2023-04-05T00:53:06;-4.50;99.90
10911;DHT22;5508;49.150;11.030;2023-04-05T00:56:07;-4.50;99.90
10911;DHT22;5508;49.150;11.030;2023-04-05T00:59:09;-4.60;99.90
10911;DHT22;5508;49.150;11.030;2023-04-05T01:02:34;-4.60;99.90
10911;DHT22;5508;49.150;11.030;2023-04-05T01:05:50;-4.60;99.90
10911;DHT22;5508;49.150;11.030;2023-04-05T01:09:03;-4.70;99.90
10911;DHT22;5508;49.150;11.030;2023-04-05T01:12:08;-4.60;99.90
10911;DHT22;5508;49.150;11.030;2023-04-05T01:15:10;-4.50;99.90
10911;DHT22;5508;49.150;11.030;2023-04-05T01:18:12;-4.60;99.90
10911;DHT22;5508;49.150;11.030;2023-04-05T01:21:29;-4.70;99.90
10911;DHT22;5508;49.150;11.030;2023-04-05T01:31:31;-4.80;99.90
10911;DHT22;5508;49.150;11.030;2023-04-05T01:37:58;-5.00;99.90
10911;DHT22;5508;49.150;11.030;2023-04-05T01:41:00;-5.00;99.90
10911;DHT22;5508;49.150;11.030;2023-04-05T01:44:00;-5.00;99.90
10911;DHT22;5508;49.150;11.030;2023-04-05T01:47:01;-5.00;99.90
10911;DHT22;5508;49.150;11.030;2023-04-05T01:50:01;-5.00;99.90
10911;DHT22;5508;49.150;11.030;2023-04-05T01:53:02;-5.00;99.90
10911;DHT22;5508;49.150;11.030;2023-04-05T01:56:03;-5.10;99.90
10911;DHT22;5508;49.150;11.030;2023-04-05T01:59:03;-5.20;99.90
10911;DHT22;5508;49.150;11.030;2023-04-05T02:02:04;-5.20;99.90
10911;DHT22;5508;49.150;11.030;2023-04-05T02:05:05;-5.20;99.90
10911;DHT22;5508;49.150;11.030;2023-04-05T02:08:06;-5.20;99.90
10911;DHT22;5508;49.150;11.030;2023-04-05T02:11:06;-5.30;99.90
10911;DHT22;5508;49.150;11.030;2023-04-05T02:14:07;-5.30;99.90
10911;DHT22;5508;49.150;11.030;2023-04-05T02:17:07;-5.30;99.90
10911;DHT22;5508;49.150;11.030;2023-04-05T02:20:08;-5.30;99.90
10911;DHT22;5508;49.150;11.030;2023-04-05T02:23:11;-5.40;99.90
10911;DHT22;5508;49.150;11.030;2023-04-05T02:26:12;-5.50;99.90
10911;DHT22;5508;49.150;11.030;2023-04-05T02:29:12;-5.50;99.90
10911;DHT22;5508;49.150;11.030;2023-04-05T02:32:13;-5.60;99.90
10911;DHT22;5508;49.150;11.030;2023-04-05T02:35:13;-5.60;99.90
10911;DHT22;5508;49.150;11.030;2023-04-05T02:38:16;-5.50;99.90
10911;DHT22;5508;49.150;11.030;2023-04-05T02:41:16;-5.50;99.90
10911;DHT22;5508;49.150;11.030;2023-04-05T02:44:17;-5.60;99.90
10911;DHT22;5508;49.150;11.030;2023-04-05T02:47:18;-5.60;99.90
10911;DHT22;5508;49.150;11.030;2023-04-05T02:50:21;-5.60;99.90
10911;DHT22;5508;49.150;11.030;2023-04-05T02:53:22;-5.60;99.90
10911;DHT22;5508;49.150;11.030;2023-04-05T02:56:23;-5.70;99.90
10911;DHT22;5508;49.150;11.030;2023-04-05T02:59:24;-5.70;99.90
10911;DHT22;5508;49.150;11.030;2023-04-05T03:02:24;-5.70;99.90
10911;DHT22;5508;49.150;11.030;2023-04-05T03:05:25;-5.70;99.90
10911;DHT22;5508;49.150;11.030;2023-04-05T03:08:25;-5.70;99.90
10911;DHT22;5508;49.150;11.030;2023-04-05T03:11:26;-5.80;99.90
10911;DHT22;5508;49.150;11.030;2023-04-05T03:14:26;-5.80;99.90
10911;DHT22;5508;49.150;11.030;2023-04-05T03:17:27;-5.80;99.90
10911;DHT22;5508;49.150;11.030;2023-04-05T03:20:27;-5.80;99.90
10911;DHT22;5508;49.150;11.030;2023-04-05T03:23:29;-5.90;99.90
10911;DHT22;5508;49.150;11.030;2023-04-05T03:26:30;-5.90;99.90
10911;DHT22;5508;49.150;11.030;2023-04-05T03:29:32;-6.00;99.90
10911;DHT22;5508;49.150;11.030;2023-04-05T03:32:33;-6.10;99.90
10911;DHT22;5508;49.150;11.030;2023-04-05T03:35:33;-6.10;99.90
10911;DHT22;5508;49.150;11.030;2023-04-05T03:38:34;-6.10;99.90
10911;DHT22;5508;49.150;11.030;2023-04-05T03:41:39;-6.10;99.90
10911;DHT22;5508;49.150;11.030;2023-04-05T03:44:40;-6.10;99.90
10911;DHT22;5508;49.150;11.030;2023-04-05T03:47:41;-6.10;99.90
10911;DHT22;5508;49.150;11.030;2023-04-05T03:50:41;-6.00;99.90
10911;DHT22;5508;49.150;11.030;2023-04-05T03:53:42;-6.00;99.90
10911;DHT22;5508;49.150;11.030;2023-04-05T03:56:42;-6.10;99.90
10911;DHT22;5508;49.150;11.030;2023-04-05T03:59:43;-6.00;99.90
10911;DHT22;5508;49.150;11.030;2023-04-05T04:02:45;-6.00;99.90
10911;DHT22;5508;49.150;11.030;2023-04-05T04:05:46;-6.10;99.90
10911;DHT22;5508;49.150;11.030;2023-04-05T04:08:47;-6.30;99.90
10911;DHT22;5508;49.150;11.030;2023-04-05T04:11:47;-6.20;99.90
10911;DHT22;5508;49.150;11.030;2023-04-05T04:14:48;-6.10;99.90
10911;DHT22;5508;49.150;11.030;2023-04-05T04:17:48;-6.20;99.90
10911;DHT22;5508;49.150;11.030;2023-04-05T04:20:49;-6.20;99.90
10911;DHT22;5508;49.150;11.030;2023-04-05T04:23:51;-6.20;99.90
10911;DHT22;5508;49.150;11.030;2023-04-05T04:26:52;-6.30;99.90
10911;DHT22;5508;49.150;11.030;2023-04-05T04:29:53;-6.40;99.90
10911;DHT22;5508;49.150;11.030;2023-04-05T04:33:01;-6.30;99.90
10911;DHT22;5508;49.150;11.030;2023-04-05T04:36:08;-6.30;99.90
10911;DHT22;5508;49.150;11.030;2023-04-05T04:39:12;-6.40;99.90
10911;DHT22;5508;49.150;11.030;2023-04-05T04:42:16;-6.50;99.90
10911;DHT22;5508;49.150;11.030;2023-04-05T04:45:21;-6.50;99.90
10911;DHT22;5508;49.150;11.030;2023-04-05T04:48:22;-6.50;99.90
10911;DHT22;5508;49.150;11.030;2023-04-05T04:51:23;-6.50;99.90
10911;DHT22;5508;49.150;11.030;2023-04-05T04:54:23;-6.30;99.90
10911;DHT22;5508;49.150;11.030;2023-04-05T04:57:24;-6.30;99.90
10911;DHT22;5508;49.150;11.030;2023-04-05T05:00:25;-6.30;99.90
10911;DHT22;5508;49.150;11.030;2023-04-05T05:03:25;-6.30;99.90
10911;DHT22;5508;49.150;11.030;2023-04-05T05:06:25;-6.40;99.90
10911;DHT22;5508;49.150;11.030;2023-04-05T05:09:26;-6.40;99.90
10911;DHT22;5508;49.150;11.030;2023-04-05T05:12:27;-6.40;99.90
10911;DHT22;5508;49.150;11.030;2023-04-05T05:15:27;-6.30;99.90
10911;DHT22;5508;49.150;11.030;2023-04-05T05:18:28;-6.30;99.90
10911;DHT22;5508;49.150;11.030;2023-04-05T05:21:28;-6.20;99.90
10911;DHT22;5508;49.150;11.030;2023-04-05T05:24:28;-6.20;99.90
10911;DHT22;5508;49.150;11.030;2023-04-05T05:27:29;-6.20;99.90
10911;DHT22;5508;49.150;11.030;2023-04-05T05:30:30;-6.10;99.90
10911;DHT22;5508;49.150;11.030;2023-04-05T05:33:31;-6.00;99.90
10911;DHT22;5508;49.150;11.030;2023-04-05T05:36:31;-5.90;99.90
10911;DHT22;5508;49.150;11.030;2023-04-05T05:39:32;-5.80;99.90
10911;DHT22;5508;49.150;11.030;2023-04-05T05:42:33;-5.70;99.90
10911;DHT22;5508;49.150;11.030;2023-04-05T05:45:33;-5.70;99.90
10911;DHT22;5508;49.150;11.030;2023-04-05T05:48:34;-5.50;99.90
10911;DHT22;5508;49.150;11.030;2023-04-05T05:51:35;-5.40;99.90
10911;DHT22;5508;49.150;11.030;2023-04-05T05:54:36;-5.20;99.90
10911;DHT22;5508;49.150;11.030;2023-04-05T05:57:36;-5.10;99.90
10911;DHT22;5508;49.150;11.030;2023-04-05T06:00:38;-5.00;99.90
10911;DHT22;5508;49.150;11.030;2023-04-05T06:03:38;-4.90;99.90
10911;DHT22;5508;49.150;11.030;2023-04-05T06:06:39;-4.80;99.90
10911;DHT22;5508;49.150;11.030;2023-04-05T06:09:42;-4.60;99.90
10911;DHT22;5508;49.150;11.030;2023-04-05T06:12:44;-4.50;99.90
10911;DHT22;5508;49.150;11.030;2023-04-05T06:15:46;-4.30;99.90
10911;DHT22;5508;49.150;11.030;2023-04-05T06:18:47;-4.20;99.90
10911;DHT22;5508;49.150;11.030;2023-04-05T06:21:48;-4.10;99.90
10911;DHT22;5508;49.150;11.030;2023-04-05T06:24:48;-4.00;99.90
10911;DHT22;5508;49.150;11.030;2023-04-05T06:27:49;-3.80;99.90
10911;DHT22;5508;49.150;11.030;2023-04-05T06:30:49;-3.60;99.90
10911;DHT22;5508;49.150;11.030;2023-04-05T06:33:50;-3.40;99.90
10911;DHT22;5508;49.150;11.030;2023-04-05T06:36:50;-3.20;99.90
10911;DHT22;5508;49.150;11.030;2023-04-05T06:39:51;-3.10;99.20
10911;DHT22;5508;49.150;11.030;2023-04-05T06:42:51;-2.90;98.80
10911;DHT22;5508;49.150;11.030;2023-04-05T06:45:55;-2.70;97.30
10911;DHT22;5508;49.150;11.030;2023-04-05T06:48:55;-2.50;96.20
10911;DHT22;5508;49.150;11.030;2023-04-05T06:51:57;-2.30;95.00
10911;DHT22;5508;49.150;11.030;2023-04-05T06:54:57;-2.00;92.70
10911;DHT22;5508;49.150;11.030;2023-04-05T06:57:58;-1.70;92.50
10911;DHT22;5508;49.150;11.030;2023-04-05T07:01:00;-1.40;89.70
10911;DHT22;5508;49.150;11.030;2023-04-05T07:04:00;-1.00;88.80
10911;DHT22;5508;49.150;11.030;2023-04-05T07:07:02;-0.80;87.70
10911;DHT22;5508;49.150;11.030;2023-04-05T07:10:04;-0.50;86.40
10911;DHT22;5508;49.150;11.030;2023-04-05T07:13:04;-0.50;84.20
10911;DHT22;5508;49.150;11.030;2023-04-05T07:16:05;-0.50;84.80
10911;DHT22;5508;49.150;11.030;2023-04-05T07:19:06;-0.30;84.70
10911;DHT22;5508;49.150;11.030;2023-04-05T07:22:06;-0.10;83.20
10911;DHT22;5508;49.150;11.030;2023-04-05T07:25:07;0.30;82.20
10911;DHT22;5508;49.150;11.030;2023-04-05T07:28:09;0.60;78.70
10911;DHT22;5508;49.150;11.030;2023-04-05T07:34:12;1.20;75.90
10911;DHT22;5508;49.150;11.030;2023-04-05T07:37:12;1.40;73.50
10911;DHT22;5508;49.150;11.030;2023-04-05T07:40:13;1.60;74.50
10911;DHT22;5508;49.150;11.030;2023-04-05T07:43:14;1.70;73.60
10911;DHT22;5508;49.150;11.030;2023-04-05T07:46:15;1.60;74.80
10911;DHT22;5508;49.150;11.030;2023-04-05T07:49:15;1.70;74.70
10911;DHT22;5508;49.150;11.030;2023-04-05T07:52:16;1.90;68.90
10911;DHT22;5508;49.150;11.030;2023-04-05T07:55:16;2.30;65.90
10911;DHT22;5508;49.150;11.030;2023-04-05T07:58:17;2.60;60.10
10911;DHT22;5508;49.150;11.030;2023-04-05T08:01:17;2.80;60.10
10911;DHT22;5508;49.150;11.030;2023-04-05T08:04:19;3.00;58.10
10911;DHT22;5508;49.150;11.030;2023-04-05T08:07:20;3.10;56.40
10911;DHT22;5508;49.150;11.030;2023-04-05T08:10:20;3.20;56.80
10911;DHT22;5508;49.150;11.030;2023-04-05T08:13:21;3.30;56.50
10911;DHT22;5508;49.150;11.030;2023-04-05T08:16:21;3.40;54.30
10911;DHT22;5508;49.150;11.030;2023-04-05T08:19:22;3.60;59.00
10911;DHT22;5508;49.150;11.030;2023-04-05T08:22:27;3.80;54.00
10911;DHT22;5508;49.150;11.030;2023-04-05T08:25:27;3.80;52.40
10911;DHT22;5508;49.150;11.030;2023-04-05T08:28:28;3.90;55.70
10911;DHT22;5508;49.150;11.030;2023-04-05T08:31:28;4.00;53.80
10911;DHT22;5508;49.150;11.030;2023-04-05T08:34:29;4.20;50.70
10911;DHT22;5508;49.150;11.030;2023-04-05T08:37:33;4.50;53.90
10911;DHT22;5508;49.150;11.030;2023-04-05T08:40:45;4.80;52.70
10911;DHT22;5508;49.150;11.030;2023-04-05T08:43:55;4.80;52.80
10911;DHT22;5508;49.150;11.030;2023-04-05T08:46:58;5.10;51.80
10911;DHT22;5508;49.150;11.030;2023-04-05T08:49:59;5.00;51.20
10911;DHT22;5508;49.150;11.030;2023-04-05T08:53:00;5.20;48.10
10911;DHT22;5508;49.150;11.030;2023-04-05T08:56:01;5.40;51.90
10911;DHT22;5508;49.150;11.030;2023-04-05T08:59:07;5.80;47.70
10911;DHT22;5508;49.150;11.030;2023-04-05T09:02:17;5.80;48.10
10911;DHT22;5508;49.150;11.030;2023-04-05T09:05:18;5.60;48.30
10911;DHT22;5508;49.150;11.030;2023-04-05T09:08:20;5.60;50.20
10911;DHT22;5508;49.150;11.030;2023-04-05T09:11:20;5.90;48.60
10911;DHT22;5508;49.150;11.030;2023-04-05T09:14:22;6.00;45.00
10911;DHT22;5508;49.150;11.030;2023-04-05T09:17:23;6.50;42.60
10911;DHT22;5508;49.150;11.030;2023-04-05T09:20:24;6.50;42.60
10911;DHT22;5508;49.150;11.030;2023-04-05T09:23:24;6.20;40.30
10911;DHT22;5508;49.150;11.030;2023-04-05T09:26:25;6.10;42.30
10911;DHT22;5508;49.150;11.030;2023-04-05T09:29:29;6.70;38.00
10911;DHT22;5508;49.150;11.030;2023-04-05T09:32:30;6.80;42.50
10911;DHT22;5508;49.150;11.030;2023-04-05T09:35:31;6.90;41.40
10911;DHT22;5508;49.150;11.030;2023-04-05T09:38:44;6.90;45.90
10911;DHT22;5508;49.150;11.030;2023-04-05T09:42:04;6.90;43.30
10911;DHT22;5508;49.150;11.030;2023-04-05T09:45:05;6.20;44.40
10911;DHT22;5508;49.150;11.030;2023-04-05T09:48:06;6.50;42.80
10911;DHT22;5508;49.150;11.030;2023-04-05T09:51:07;6.50;44.00
10911;DHT22;5508;49.150;11.030;2023-04-05T09:54:09;6.20;37.70
10911;DHT22;5508;49.150;11.030;2023-04-05T09:57:10;5.90;42.90
10911;DHT22;5508;49.150;11.030;2023-04-05T10:00:19;5.60;46.70
10911;DHT22;5508;49.150;11.030;2023-04-05T10:03:24;5.40;39.00
10911;DHT22;5508;49.150;11.030;2023-04-05T10:06:41;5.30;41.10
10911;DHT22;5508;49.150;11.030;2023-04-05T10:09:43;5.30;39.20
10911;DHT22;5508;49.150;11.030;2023-04-05T10:12:45;5.20;40.90
10911;DHT22;5508;49.150;11.030;2023-04-05T10:15:49;5.10;41.50
10911;DHT22;5508;49.150;11.030;2023-04-05T10:18:51;5.00;42.80
10911;DHT22;5508;49.150;11.030;2023-04-05T10:21:53;4.90;45.70
10911;DHT22;5508;49.150;11.030;2023-04-05T10:25:03;5.10;44.70
10911;DHT22;5508;49.150;11.030;2023-04-05T10:28:09;5.90;45.80
10911;DHT22;5508;49.150;11.030;2023-04-05T10:31:32;6.20;43.40
10911;DHT22;5508;49.150;11.030;2023-04-05T10:34:45;6.70;40.00
10911;DHT22;5508;49.150;11.030;2023-04-05T10:38:07;7.30;41.30
10911;DHT22;5508;49.150;11.030;2023-04-05T10:41:13;8.00;40.30
10911;DHT22;5508;49.150;11.030;2023-04-05T10:44:14;8.60;40.20
10911;DHT22;5508;49.150;11.030;2023-04-05T10:47:15;8.70;36.20
10911;DHT22;5508;49.150;11.030;2023-04-05T10:50:22;8.50;35.60
10911;DHT22;5508;49.150;11.030;2023-04-05T10:53:24;7.60;36.80
10911;DHT22;5508;49.150;11.030;2023-04-05T10:56:25;7.10;38.00
10911;DHT22;5508;49.150;11.030;2023-04-05T10:59:27;7.50;43.40
10911;DHT22;5508;49.150;11.030;2023-04-05T11:02:28;7.80;39.50
10911;DHT22;5508;49.150;11.030;2023-04-05T11:05:34;7.80;39.70
10911;DHT22;5508;49.150;11.030;2023-04-05T11:08:40;7.60;37.80
10911;DHT22;5508;49.150;11.030;2023-04-05T11:11:44;7.60;37.60
10911;DHT22;5508;49.150;11.030;2023-04-05T11:14:44;7.80;39.00
10911;DHT22;5508;49.150;11.030;2023-04-05T11:18:01;7.50;39.30
10911;DHT22;5508;49.150;11.030;2023-04-05T11:21:06;9.30;38.60
10911;DHT22;5508;49.150;11.030;2023-04-05T11:24:08;9.50;39.50
10911;DHT22;5508;49.150;11.030;2023-04-05T11:27:11;9.60;31.70
10911;DHT22;5508;49.150;11.030;2023-04-05T11:30:12;10.10;35.60
10911;DHT22;5508;49.150;11.030;2023-04-05T11:36:46;10.10;30.70
10911;DHT22;5508;49.150;11.030;2023-04-05T11:39:47;9.20;35.20
10911;DHT22;5508;49.150;11.030;2023-04-05T11:43:00;8.50;35.30
10911;DHT22;5508;49.150;11.030;2023-04-05T11:46:02;8.00;35.60
10911;DHT22;5508;49.150;11.030;2023-04-05T11:49:03;7.20;36.70
10911;DHT22;5508;49.150;11.030;2023-04-05T11:52:12;7.10;39.90
10911;DHT22;5508;49.150;11.030;2023-04-05T11:55:13;7.20;41.00
10911;DHT22;5508;49.150;11.030;2023-04-05T11:58:23;7.30;37.30
10911;DHT22;5508;49.150;11.030;2023-04-05T12:01:24;7.20;39.50
10911;DHT22;5508;49.150;11.030;2023-04-05T12:04:25;7.60;38.60
10911;DHT22;5508;49.150;11.030;2023-04-05T12:07:27;7.70;37.40
10911;DHT22;5508;49.150;11.030;2023-04-05T12:10:36;7.70;37.90
10911;DHT22;5508;49.150;11.030;2023-04-05T12:13:37;7.70;36.20
10911;DHT22;5508;49.150;11.030;2023-04-05T12:16:47;7.50;35.40
10911;DHT22;5508;49.150;11.030;2023-04-05T12:19:48;7.80;35.60
10911;DHT22;5508;49.150;11.030;2023-04-05T12:22:52;8.20;37.00
10911;DHT22;5508;49.150;11.030;2023-04-05T12:25:54;8.80;38.70
10911;DHT22;5508;49.150;11.030;2023-04-05T12:28:58;9.10;37.40
10911;DHT22;5508;49.150;11.030;2023-04-05T12:32:00;9.60;40.10
10911;DHT22;5508;49.150;11.030;2023-04-05T12:35:11;10.00;36.60
10911;DHT22;5508;49.150;11.030;2023-04-05T12:38:13;10.20;34.30
10911;DHT22;5508;49.150;11.030;2023-04-05T12:41:15;10.30;33.80
10911;DHT22;5508;49.150;11.030;2023-04-05T12:44:26;10.10;29.10
10911;DHT22;5508;49.150;11.030;2023-04-05T12:47:28;9.20;35.50
10911;DHT22;5508;49.150;11.030;2023-04-05T12:50:31;9.30;31.80
10911;DHT22;5508;49.150;11.030;2023-04-05T12:53:32;9.20;36.20
10911;DHT22;5508;49.150;11.030;2023-04-05T12:56:32;9.60;37.60
10911;DHT22;5508;49.150;11.030;2023-04-05T12:59:33;9.00;34.90
10911;DHT22;5508;49.150;11.030;2023-04-05T13:02:33;9.20;31.40
10911;DHT22;5508;49.150;11.030;2023-04-05T13:05:34;9.40;33.50
10911;DHT22;5508;49.150;11.030;2023-04-05T13:08:34;9.20;34.50
10911;DHT22;5508;49.150;11.030;2023-04-05T13:11:35;9.00;36.70
10911;DHT22;5508;49.150;11.030;2023-04-05T13:14:35;9.10;35.60
10911;DHT22;5508;49.150;11.030;2023-04-05T13:17:36;9.10;37.50
10911;DHT22;5508;49.150;11.030;2023-04-05T13:20:37;9.10;35.00
10911;DHT22;5508;49.150;11.030;2023-04-05T13:23:38;9.10;32.60
10911;DHT22;5508;49.150;11.030;2023-04-05T13:26:39;9.20;38.40
10911;DHT22;5508;49.150;11.030;2023-04-05T13:29:40;9.80;37.70
10911;DHT22;5508;49.150;11.030;2023-04-05T13:32:41;9.60;33.50
10911;DHT22;5508;49.150;11.030;2023-04-05T13:35:41;9.00;35.70
10911;DHT22;5508;49.150;11.030;2023-04-05T13:38:41;8.40;32.80
10911;DHT22;5508;49.150;11.030;2023-04-05T13:41:42;8.50;36.00
10911;DHT22;5508;49.150;11.030;2023-04-05T13:44:42;8.50;35.90
10911;DHT22;5508;49.150;11.030;2023-04-05T13:47:43;8.80;33.50
10911;DHT22;5508;49.150;11.030;2023-04-05T13:50:44;8.80;35.00
10911;DHT22;5508;49.150;11.030;2023-04-05T13:53:45;7.90;36.10
10911;DHT22;5508;49.150;11.030;2023-04-05T13:56:46;7.60;35.90
10911;DHT22;5508;49.150;11.030;2023-04-05T13:59:47;7.30;37.70
10911;DHT22;5508;49.150;11.030;2023-04-05T14:02:47;7.30;35.40
10911;DHT22;5508;49.150;11.030;2023-04-05T14:05:50;7.20;35.10
10911;DHT22;5508;49.150;11.030;2023-04-05T14:08:51;7.20;35.70
10911;DHT22;5508;49.150;11.030;2023-04-05T14:11:54;7.60;37.50
10911;DHT22;5508;49.150;11.030;2023-04-05T14:14:56;8.20;33.30
10911;DHT22;5508;49.150;11.030;2023-04-05T14:17:59;8.50;36.70
10911;DHT22;5508;49.150;11.030;2023-04-05T14:20:59;9.20;37.00
10911;DHT22;5508;49.150;11.030;2023-04-05T14:24:00;9.40;34.80
10911;DHT22;5508;49.150;11.030;2023-04-05T14:27:01;9.70;34.90
10911;DHT22;5508;49.150;11.030;2023-04-05T14:30:02;9.90;31.50
10911;DHT22;5508;49.150;11.030;2023-04-05T14:33:02;9.60;31.60
10911;DHT22;5508;49.150;11.030;2023-04-05T14:36:03;9.70;35.30
10911;DHT22;5508;49.150;11.030;2023-04-05T14:39:03;10.10;33.20
10911;DHT22;5508;49.150;11.030;2023-04-05T14:42:04;10.50;34.80
10911;DHT22;5508;49.150;11.030;2023-04-05T14:45:05;10.20;33.00
10911;DHT22;5508;49.150;11.030;2023-04-05T14:48:06;10.20;34.10
10911;DHT22;5508;49.150;11.030;2023-04-05T14:51:06;10.20;33.10
10911;DHT22;5508;49.150;11.030;2023-04-05T14:54:07;9.90;35.20
10911;DHT22;5508;49.150;11.030;2023-04-05T14:57:08;9.40;31.80
10911;DHT22;5508;49.150;11.030;2023-04-05T15:00:09;9.20;31.90
10911;DHT22;5508;49.150;11.030;2023-04-05T15:03:10;9.20;33.70
10911;DHT22;5508;49.150;11.030;2023-04-05T15:06:11;9.60;37.40
10911;DHT22;5508;49.150;11.030;2023-04-05T15:09:11;10.40;35.60
10911;DHT22;5508;49.150;11.030;2023-04-05T15:12:12;10.50;30.80
10911;DHT22;5508;49.150;11.030;2023-04-05T15:15:13;10.60;35.30
10911;DHT22;5508;49.150;11.030;2023-04-05T15:18:13;10.50;31.00
10911;DHT22;5508;49.150;11.030;2023-04-05T15:21:14;10.50;34.90
10911;DHT22;5508;49.150;11.030;2023-04-05T15:24:15;10.50;34.00
10911;DHT22;5508;49.150;11.030;2023-04-05T15:27:15;10.70;32.40
10911;DHT22;5508;49.150;11.030;2023-04-05T15:30:16;10.30;32.40
10911;DHT22;5508;49.150;11.030;2023-04-05T15:33:17;9.70;29.90
10911;DHT22;5508;49.150;11.030;2023-04-05T15:36:17;9.00;33.20
10911;DHT22;5508;49.150;11.030;2023-04-05T15:39:18;8.50;34.70
10911;DHT22;5508;49.150;11.030;2023-04-05T15:42:20;8.20;36.90
10911;DHT22;5508;49.150;11.030;2023-04-05T15:45:21;8.10;39.80
10911;DHT22;5508;49.150;11.030;2023-04-05T15:48:22;7.90;40.60
10911;DHT22;5508;49.150;11.030;2023-04-05T15:51:22;7.70;37.60
10911;DHT22;5508;49.150;11.030;2023-04-05T15:54:23;7.50;38.60
10911;DHT22;5508;49.150;11.030;2023-04-05T15:57:23;7.60;38.10
10911;DHT22;5508;49.150;11.030;2023-04-05T16:00:24;7.50;40.10
10911;DHT22;5508;49.150;11.030;2023-04-05T16:03:26;7.50;41.50
10911;DHT22;5508;49.150;11.030;2023-04-05T16:06:27;7.40;39.40
10911;DHT22;5508;49.150;11.030;2023-04-05T16:09:29;7.40;38.80
10911;DHT22;5508;49.150;11.030;2023-04-05T16:12:29;7.30;41.00
10911;DHT22;5508;49.150;11.030;2023-04-05T16:15:30;7.30;42.20
10911;DHT22;5508;49.150;11.030;2023-04-05T16:18:31;7.70;40.00
10911;DHT22;5508;49.150;11.030;2023-04-05T16:21:33;8.00;40.70
10911;DHT22;5508;49.150;11.030;2023-04-05T16:24:34;8.20;39.70
10911;DHT22;5508;49.150;11.030;2023-04-05T16:27:36;8.40;41.50
10911;DHT22;5508;49.150;11.030;2023-04-05T16:30:36;8.60;38.60
10911;DHT22;5508;49.150;11.030;2023-04-05T16:33:37;8.80;36.40
10911;DHT22;5508;49.150;11.030;2023-04-05T16:36:37;8.90;40.20
10911;DHT22;5508;49.150;11.030;2023-04-05T16:39:38;9.10;37.50
10911;DHT22;5508;49.150;11.030;2023-04-05T16:42:38;9.10;36.60
10911;DHT22;5508;49.150;11.030;2023-04-05T16:45:39;9.00;39.30
10911;DHT22;5508;49.150;11.030;2023-04-05T16:48:40;8.60;37.50
10911;DHT22;5508;49.150;11.030;2023-04-05T16:51:41;8.20;37.00
10911;DHT22;5508;49.150;11.030;2023-04-05T16:54:41;7.70;39.30
10911;DHT22;5508;49.150;11.030;2023-04-05T16:57:42;7.40;41.50
10911;DHT22;5508;49.150;11.030;2023-04-05T17:00:42;7.00;41.80
10911;DHT22;5508;49.150;11.030;2023-04-05T17:03:43;6.80;40.60
10911;DHT22;5508;49.150;11.030;2023-04-05T17:06:47;6.60;42.40
10911;DHT22;5508;49.150;11.030;2023-04-05T17:09:48;6.40;44.80
10911;DHT22;5508;49.150;11.030;2023-04-05T17:12:49;6.20;45.00
10911;DHT22;5508;49.150;11.030;2023-04-05T17:15:50;6.00;44.90
10911;DHT22;5508;49.150;11.030;2023-04-05T17:18:51;5.80;44.60
10911;DHT22;5508;49.150;11.030;2023-04-05T17:21:51;5.70;44.50
10911;DHT22;5508;49.150;11.030;2023-04-05T17:24:52;5.60;47.00
10911;DHT22;5508;49.150;11.030;2023-04-05T17:27:52;5.30;47.90
10911;DHT22;5508;49.150;11.030;2023-04-05T17:30:54;5.30;48.50
10911;DHT22;5508;49.150;11.030;2023-04-05T17:33:55;5.10;50.80
10911;DHT22;5508;49.150;11.030;2023-04-05T17:36:55;4.90;53.00
10911;DHT22;5508;49.150;11.030;2023-04-05T17:39:56;4.80;52.10
10911;DHT22;5508;49.150;11.030;2023-04-05T17:42:56;4.60;52.60
10911;DHT22;5508;49.150;11.030;2023-04-05T17:45:57;4.40;53.60
10911;DHT22;5508;49.150;11.030;2023-04-05T17:48:57;4.20;54.30
10911;DHT22;5508;49.150;11.030;2023-04-05T17:51:58;3.90;56.20
10911;DHT22;5508;49.150;11.030;2023-04-05T17:54:58;3.80;57.20
10911;DHT22;5508;49.150;11.030;2023-04-05T17:57:59;3.70;57.90
10911;DHT22;5508;49.150;11.030;2023-04-05T18:01:00;3.50;58.30
10911;DHT22;5508;49.150;11.030;2023-04-05T18:04:00;3.40;59.40
10911;DHT22;5508;49.150;11.030;2023-04-05T18:07:01;3.30;60.00
10911;DHT22;5508;49.150;11.030;2023-04-05T18:10:03;3.10;62.10
10911;DHT22;5508;49.150;11.030;2023-04-05T18:13:04;3.00;61.20
10911;DHT22;5508;49.150;11.030;2023-04-05T18:16:05;2.90;62.00
10911;DHT22;5508;49.150;11.030;2023-04-05T18:19:06;2.80;63.00
10911;DHT22;5508;49.150;11.030;2023-04-05T18:22:06;2.70;61.80
10911;DHT22;5508;49.150;11.030;2023-04-05T18:25:07;2.70;62.50
10911;DHT22;5508;49.150;11.030;2023-04-05T18:28:09;2.50;64.00
10911;DHT22;5508;49.150;11.030;2023-04-05T18:31:09;2.30;68.10
10911;DHT22;5508;49.150;11.030;2023-04-05T18:34:11;2.20;69.60
10911;DHT22;5508;49.150;11.030;2023-04-05T18:37:11;2.00;70.60
10911;DHT22;5508;49.150;11.030;2023-04-05T18:40:12;1.70;71.70
10911;DHT22;5508;49.150;11.030;2023-04-05T18:43:13;1.60;73.00
10911;DHT22;5508;49.150;11.030;2023-04-05T18:46:13;1.50;73.80
10911;DHT22;5508;49.150;11.030;2023-04-05T18:49:17;1.30;72.90
10911;DHT22;5508;49.150;11.030;2023-04-05T18:52:18;1.10;71.40
10911;DHT22;5508;49.150;11.030;2023-04-05T18:55:25;0.90;71.50
10911;DHT22;5508;49.150;11.030;2023-04-05T18:58:25;0.70;72.80
10911;DHT22;5508;49.150;11.030;2023-04-05T19:01:26;0.50;72.70
10911;DHT22;5508;49.150;11.030;2023-04-05T19:04:26;0.50;73.80
10911;DHT22;5508;49.150;11.030;2023-04-05T19:07:27;0.40;73.80
10911;DHT22;5508;49.150;11.030;2023-04-05T19:10:29;0.40;74.40
10911;DHT22;5508;49.150;11.030;2023-04-05T19:13:29;0.30;74.80
10911;DHT22;5508;49.150;11.030;2023-04-05T19:16:30;0.20;74.10
10911;DHT22;5508;49.150;11.030;2023-04-05T19:19:30;0.20;75.40
10911;DHT22;5508;49.150;11.030;2023-04-05T19:22:31;0.10;76.00
10911;DHT22;5508;49.150;11.030;2023-04-05T19:25:33;0.00;78.10
10911;DHT22;5508;49.150;11.030;2023-04-05T19:28:34;-0.10;79.00
10911;DHT22;5508;49.150;11.030;2023-04-05T19:31:35;-0.20;78.80
10911;DHT22;5508;49.150;11.030;2023-04-05T19:34:36;-0.20;79.50
10911;DHT22;5508;49.150;11.030;2023-04-05T19:37:37;-0.30;79.20